createdAt,value
2022-10-01T00:00:19.543Z,97.36
2022-10-01T00:01:19.593Z,97.47
2022-10-01T00:02:19.517Z,97.42
2022-10-01T00:03:19.627Z,97.42
2022-10-01T00:04:19.912Z,97.42
2022-10-01T00:05:19.473Z,97.42
2022-10-01T00:06:19.472Z,97.42
2022-10-01T00:07:19.456Z,97.42
2022-10-01T00:08:19.444Z,97.42
2022-10-01T00:09:19.791Z,97.42
2022-10-01T00:10:19.417Z,97.42
2022-10-01T00:11:19.408Z,97.42
2022-10-01T00:12:19.390Z,97.42
2022-10-01T00:13:19.381Z,97.42
2022-10-01T00:14:19.368Z,97.38
2022-10-01T00:15:19.701Z,97.38
2022-10-01T00:16:19.407Z,97.38
2022-10-01T00:17:19.330Z,97.38
2022-10-01T00:18:19.321Z,97.27
2022-10-01T00:19:19.738Z,97.27
2022-10-01T00:20:19.299Z,97.27
2022-10-01T00:21:19.270Z,97.27
2022-10-01T00:22:19.276Z,97.27
2022-10-01T00:23:19.249Z,97.17
2022-10-01T00:24:19.238Z,97.06
2022-10-01T00:25:19.584Z,97.06
2022-10-01T00:26:19.216Z,97.06
2022-10-01T00:27:19.203Z,97.06
2022-10-01T00:28:19.259Z,96.96
2022-10-01T00:29:19.610Z,96.96
2022-10-01T00:30:19.157Z,96.96
2022-10-01T00:31:19.209Z,96.91
2022-10-01T00:32:19.141Z,96.96
2022-10-01T00:33:19.126Z,96.96
2022-10-01T00:34:19.535Z,97.01
2022-10-01T00:35:19.095Z,97.01
2022-10-01T00:36:19.091Z,97.01
2022-10-01T00:37:19.064Z,97.01
2022-10-01T00:38:19.056Z,97.01
2022-10-01T00:39:19.447Z,97.01
2022-10-01T00:40:19.040Z,97.01
2022-10-01T00:41:19.012Z,97.01
2022-10-01T00:42:19.003Z,97.01
2022-10-01T00:43:18.994Z,97.11
2022-10-01T00:44:19.330Z,97.11
2022-10-01T00:45:18.971Z,97.21
2022-10-01T00:46:18.992Z,97.21
2022-10-01T00:47:18.940Z,97.11
2022-10-01T00:48:18.939Z,97.01
2022-10-01T00:49:19.320Z,97.01
2022-10-01T00:50:18.902Z,97.01
2022-10-01T00:51:18.890Z,96.95
2022-10-01T00:52:18.879Z,96.95
2022-10-01T00:53:18.859Z,97.05
2022-10-01T00:54:19.269Z,97.05
2022-10-01T00:55:18.852Z,97.05
2022-10-01T00:56:18.829Z,97.05
2022-10-01T00:57:18.817Z,97.05
2022-10-01T00:58:18.810Z,97.05
2022-10-01T00:59:19.125Z,96.95
2022-10-01T01:00:18.778Z,96.95
2022-10-01T01:01:18.793Z,96.99
2022-10-01T01:02:18.810Z,96.99
2022-10-01T01:03:18.745Z,96.99
2022-10-01T01:04:19.157Z,96.99
2022-10-01T01:05:18.716Z,96.99
2022-10-01T01:06:18.705Z,96.99
2022-10-01T01:07:18.686Z,96.89
2022-10-01T01:08:18.678Z,96.94
2022-10-01T01:09:19.075Z,97.04
2022-10-01T01:10:18.656Z,97.14
2022-10-01T01:11:18.644Z,97.14
2022-10-01T01:12:18.634Z,97.25
2022-10-01T01:13:18.612Z,97.25
2022-10-01T01:14:18.978Z,97.25
2022-10-01T01:15:18.586Z,97.25
2022-10-01T01:16:18.634Z,97.34
2022-10-01T01:17:18.560Z,97.34
2022-10-01T01:18:18.554Z,97.34
2022-10-01T01:19:18.974Z,97.34
2022-10-01T01:20:18.533Z,97.45
2022-10-01T01:21:18.511Z,97.45
2022-10-01T01:22:18.505Z,97.55
2022-10-01T01:23:18.491Z,97.66
2022-10-01T01:24:18.892Z,97.66
2022-10-01T01:25:18.462Z,97.66
2022-10-01T01:26:18.450Z,97.66
2022-10-01T01:27:18.431Z,97.66
2022-10-01T01:28:18.470Z,97.55
2022-10-01T01:29:18.798Z,97.45
2022-10-01T01:30:18.400Z,97.39
2022-10-01T01:31:18.449Z,97.39
2022-10-01T01:32:18.371Z,97.39
2022-10-01T01:33:18.360Z,97.50
2022-10-01T01:34:18.348Z,97.50
2022-10-01T01:35:18.698Z,97.39
2022-10-01T01:36:18.318Z,97.50
2022-10-01T01:37:18.318Z,97.50
2022-10-01T01:38:18.300Z,97.60
2022-10-01T01:39:18.721Z,97.60
2022-10-01T01:40:18.267Z,97.60
2022-10-01T01:41:18.255Z,97.60
2022-10-01T01:42:18.247Z,97.71
2022-10-01T01:43:18.235Z,97.60
2022-10-01T01:44:18.216Z,97.71
2022-10-01T01:45:18.625Z,97.71
2022-10-01T01:46:25.177Z,97.60
2022-10-01T01:47:25.185Z,97.60
2022-10-01T01:48:25.169Z,97.64
2022-10-01T01:49:25.538Z,97.64
2022-10-01T01:50:25.143Z,97.54
2022-10-01T01:51:25.125Z,97.64
2022-10-01T01:52:25.111Z,97.54
2022-10-01T01:53:25.088Z,97.64
2022-10-01T01:54:18.438Z,97.64
2022-10-01T01:55:18.077Z,97.64
2022-10-01T01:56:18.069Z,97.64
2022-10-01T01:57:18.060Z,97.64
2022-10-01T01:58:18.046Z,97.54
2022-10-01T01:59:18.355Z,97.54
2022-10-01T02:00:18.013Z,97.54
2022-10-01T02:01:18.073Z,97.59
2022-10-01T02:02:18.107Z,97.59
2022-10-01T02:03:17.981Z,97.69
2022-10-01T02:04:17.965Z,97.69
2022-10-01T02:05:18.385Z,97.69
2022-10-01T02:06:17.934Z,97.59
2022-10-01T02:07:17.923Z,97.59
2022-10-01T02:08:17.921Z,97.59
2022-10-01T02:09:18.162Z,97.69
2022-10-01T02:10:17.895Z,97.79
2022-10-01T02:11:17.874Z,97.79
2022-10-01T02:12:17.873Z,97.89
2022-10-01T02:13:17.852Z,97.89
2022-10-01T02:14:18.223Z,97.96
2022-10-01T02:15:17.823Z,97.96
2022-10-01T02:16:17.856Z,97.96
2022-10-01T02:17:17.800Z,97.96
2022-10-01T02:18:17.789Z,97.96
2022-10-01T02:19:18.215Z,98.06
2022-10-01T02:20:17.759Z,98.06
2022-10-01T02:21:17.759Z,98.16
2022-10-01T02:22:17.737Z,98.16
2022-10-01T02:23:17.728Z,98.16
2022-10-01T02:24:17.708Z,98.11
2022-10-01T02:25:18.128Z,98.11
2022-10-01T02:26:17.691Z,98.11
2022-10-01T02:27:17.678Z,98.01
2022-10-01T02:28:17.711Z,98.22
2022-10-01T02:29:18.047Z,98.32
2022-10-01T02:30:17.635Z,98.22
2022-10-01T02:31:17.655Z,98.32
2022-10-01T02:32:17.619Z,98.22
2022-10-01T02:33:17.596Z,98.22
2022-10-01T02:34:20.238Z,98.22
2022-10-01T02:35:17.573Z,98.22
2022-10-01T02:36:17.569Z,98.22
2022-10-01T02:37:17.553Z,98.32
2022-10-01T02:38:17.526Z,98.22
2022-10-01T02:39:17.943Z,98.22
2022-10-01T02:40:17.507Z,98.22
2022-10-01T02:41:17.504Z,98.22
2022-10-01T02:42:17.485Z,98.22
2022-10-01T02:43:17.465Z,98.22
2022-10-01T02:44:17.875Z,98.11
2022-10-01T02:45:17.446Z,98.11
2022-10-01T02:46:17.481Z,98.11
2022-10-01T02:47:17.422Z,98.01
2022-10-01T02:48:17.412Z,98.01
2022-10-01T02:49:17.770Z,98.01
2022-10-01T02:50:17.379Z,97.91
2022-10-01T02:51:17.370Z,97.91
2022-10-01T02:52:17.350Z,97.91
2022-10-01T02:53:17.340Z,98.01
2022-10-01T02:54:17.657Z,97.91
2022-10-01T02:55:17.319Z,98.01
2022-10-01T02:56:17.299Z,98.01
2022-10-01T02:57:17.290Z,97.91
2022-10-01T02:58:17.292Z,97.91
2022-10-01T02:59:17.788Z,97.91
2022-10-01T03:00:17.251Z,97.91
2022-10-01T03:01:17.282Z,97.91
2022-10-01T03:02:17.320Z,97.91
2022-10-01T03:03:17.222Z,97.91
2022-10-01T03:04:17.627Z,97.81
2022-10-01T03:05:17.190Z,97.91
2022-10-01T03:06:17.173Z,97.81
2022-10-01T03:07:17.165Z,97.81
2022-10-01T03:08:17.155Z,97.81
2022-10-01T03:09:17.513Z,97.81
2022-10-01T03:10:17.129Z,97.81
2022-10-01T03:11:17.116Z,97.81
2022-10-01T03:12:17.117Z,97.81
2022-10-01T03:13:17.084Z,97.91
2022-10-01T03:14:17.495Z,97.91
2022-10-01T03:15:17.075Z,98.01
2022-10-01T03:16:17.081Z,98.01
2022-10-01T03:17:17.036Z,97.97
2022-10-01T03:18:17.027Z,97.97
2022-10-01T03:19:17.437Z,97.97
2022-10-01T03:20:16.995Z,98.07
2022-10-01T03:21:16.982Z,97.97
2022-10-01T03:22:16.970Z,97.97
2022-10-01T03:23:16.963Z,97.97
2022-10-01T03:24:17.351Z,97.97
2022-10-01T03:25:16.942Z,98.07
2022-10-01T03:26:16.924Z,97.97
2022-10-01T03:27:16.911Z,97.97
2022-10-01T03:28:16.933Z,97.97
2022-10-01T03:29:17.252Z,97.86
2022-10-01T03:30:16.873Z,97.91
2022-10-01T03:31:16.960Z,97.91
2022-10-01T03:32:16.850Z,97.81
2022-10-01T03:33:16.842Z,97.81
2022-10-01T03:34:16.822Z,97.81
2022-10-01T03:35:17.167Z,97.81
2022-10-01T03:36:16.799Z,97.81
2022-10-01T03:37:16.777Z,97.81
2022-10-01T03:38:16.767Z,97.71
2022-10-01T03:39:17.196Z,97.71
2022-10-01T03:40:16.738Z,97.75
2022-10-01T03:41:16.735Z,97.75
2022-10-01T03:42:16.730Z,97.75
2022-10-01T03:43:16.713Z,97.75
2022-10-01T03:44:16.685Z,97.75
2022-10-01T03:45:17.118Z,97.75
2022-10-01T03:46:16.703Z,97.64
2022-10-01T03:47:16.654Z,97.64
2022-10-01T03:48:16.644Z,97.64
2022-10-01T03:49:17.014Z,97.75
2022-10-01T03:50:16.616Z,97.75
2022-10-01T03:51:19.794Z,97.85
2022-10-01T03:52:16.586Z,97.96
2022-10-01T03:53:16.591Z,97.96
2022-10-01T03:54:16.903Z,97.96
2022-10-01T03:55:16.555Z,97.96
2022-10-01T03:56:16.532Z,97.96
2022-10-01T03:57:16.523Z,97.96
2022-10-01T03:58:16.529Z,97.96
2022-10-01T03:59:16.937Z,97.96
2022-10-01T04:00:17.241Z,97.96
2022-10-01T04:01:16.515Z,97.96
2022-10-01T04:02:16.601Z,98.06
2022-10-01T04:03:16.453Z,98.06
2022-10-01T04:04:16.820Z,98.01
2022-10-01T04:05:16.431Z,98.11
2022-10-01T04:06:16.430Z,98.11
2022-10-01T04:07:16.400Z,98.11
2022-10-01T04:08:18.772Z,98.11
2022-10-01T04:09:16.710Z,98.11
2022-10-01T04:10:16.358Z,98.11
2022-10-01T04:11:16.354Z,98.11
2022-10-01T04:12:16.336Z,98.01
2022-10-01T04:13:16.326Z,98.01
2022-10-01T04:14:16.746Z,98.01
2022-10-01T04:15:16.295Z,98.11
2022-10-01T04:16:16.346Z,98.01
2022-10-01T04:17:16.301Z,98.06
2022-10-01T04:18:16.255Z,98.06
2022-10-01T04:19:16.604Z,98.06
2022-10-01T04:20:16.243Z,98.06
2022-10-01T04:21:16.225Z,97.96
2022-10-01T04:22:16.213Z,98.06
2022-10-01T04:23:23.191Z,97.85
2022-10-01T04:24:23.199Z,97.96
2022-10-01T04:25:23.173Z,97.96
2022-10-01T04:26:16.145Z,98.06
2022-10-01T04:27:16.144Z,97.96
2022-10-01T04:28:16.172Z,97.96
2022-10-01T04:29:16.507Z,97.85
2022-10-01T04:30:23.100Z,97.85
2022-10-01T04:31:16.125Z,97.79
2022-10-01T04:32:16.083Z,97.89
2022-10-01T04:33:16.068Z,97.79
2022-10-01T04:34:16.061Z,97.85
2022-10-01T04:35:16.390Z,97.85
2022-10-01T04:36:16.030Z,97.85
2022-10-01T04:37:16.019Z,97.85
2022-10-01T04:38:16.012Z,97.96
2022-10-01T04:39:16.431Z,97.96
2022-10-01T04:40:15.980Z,97.96
2022-10-01T04:41:15.968Z,97.96
2022-10-01T04:42:15.962Z,98.06
2022-10-01T04:43:15.946Z,98.06
2022-10-01T04:44:15.928Z,98.06
2022-10-01T04:45:16.288Z,98.06
2022-10-01T04:46:15.931Z,97.96
2022-10-01T04:47:15.896Z,97.96
2022-10-01T04:48:15.881Z,98.00
2022-10-01T04:49:16.178Z,98.00
2022-10-01T04:50:15.858Z,98.00
2022-10-01T04:51:15.844Z,98.00
2022-10-01T04:52:15.827Z,98.00
2022-10-01T04:53:15.819Z,98.00
2022-10-01T04:54:16.237Z,98.00
2022-10-01T04:55:15.802Z,98.00
2022-10-01T04:56:15.774Z,98.10
2022-10-01T04:57:15.767Z,98.10
2022-10-01T04:58:15.757Z,98.10
2022-10-01T04:59:16.113Z,98.10
2022-10-01T05:00:15.722Z,98.10
2022-10-01T05:01:15.796Z,98.10
2022-10-01T05:02:15.738Z,98.21
2022-10-01T05:03:15.691Z,98.21
2022-10-01T05:04:16.124Z,98.21
2022-10-01T05:05:15.665Z,98.21
2022-10-01T05:06:15.648Z,98.21
2022-10-01T05:07:15.641Z,98.21
2022-10-01T05:08:15.627Z,98.16
2022-10-01T05:09:16.051Z,98.16
2022-10-01T05:10:15.590Z,98.16
2022-10-01T05:11:15.597Z,98.16
2022-10-01T05:12:15.579Z,98.16
2022-10-01T05:13:15.569Z,98.16
2022-10-01T05:14:15.930Z,98.16
2022-10-01T05:15:15.573Z,98.16
2022-10-01T05:16:15.574Z,98.16
2022-10-01T05:17:15.517Z,98.06
2022-10-01T05:18:15.497Z,98.01
2022-10-01T05:19:15.942Z,98.01
2022-10-01T05:20:15.472Z,98.01
2022-10-01T05:21:15.467Z,98.01
2022-10-01T05:22:15.446Z,98.11
2022-10-01T05:23:15.445Z,98.11
2022-10-01T05:24:15.787Z,98.07
2022-10-01T05:25:15.414Z,98.07
2022-10-01T05:26:15.395Z,97.97
2022-10-01T05:27:15.395Z,97.97
2022-10-01T05:28:21.168Z,97.97
2022-10-01T05:29:16.705Z,98.07
2022-10-01T05:30:15.339Z,98.07
2022-10-01T05:31:15.400Z,98.07
2022-10-01T05:32:15.314Z,98.07
2022-10-01T05:33:15.312Z,98.07
2022-10-01T05:34:15.736Z,98.07
2022-10-01T05:35:15.286Z,98.02
2022-10-01T05:36:15.264Z,98.02
2022-10-01T05:37:15.260Z,98.02
2022-10-01T05:38:15.243Z,98.02
2022-10-01T05:39:15.591Z,98.02
2022-10-01T05:40:15.219Z,98.02
2022-10-01T05:41:15.203Z,98.02
2022-10-01T05:42:15.202Z,98.02
2022-10-01T05:43:15.184Z,97.92
2022-10-01T05:44:15.190Z,97.92
2022-10-01T05:45:15.597Z,97.92
2022-10-01T05:46:15.184Z,97.92
2022-10-01T05:47:15.133Z,97.92
2022-10-01T05:48:15.116Z,97.92
2022-10-01T05:49:15.493Z,97.82
2022-10-01T05:50:15.088Z,97.82
2022-10-01T05:51:15.087Z,97.82
2022-10-01T05:52:15.071Z,97.82
2022-10-01T05:53:15.063Z,97.77
2022-10-01T05:54:15.045Z,97.77
2022-10-01T05:55:15.459Z,97.77
2022-10-01T05:56:15.014Z,97.77
2022-10-01T05:57:15.016Z,97.77
2022-10-01T05:58:15.014Z,97.77
2022-10-01T05:59:15.366Z,97.77
2022-10-01T06:00:14.993Z,97.77
2022-10-01T06:01:14.948Z,97.67
2022-10-01T06:02:15.038Z,97.67
2022-10-01T06:03:14.967Z,97.67
2022-10-01T06:04:15.284Z,97.63
2022-10-01T06:05:14.911Z,97.63
2022-10-01T06:06:14.932Z,97.52
2022-10-01T06:07:14.874Z,97.52
2022-10-01T06:08:14.885Z,97.52
2022-10-01T06:09:15.235Z,97.52
2022-10-01T06:10:14.843Z,97.52
2022-10-01T06:11:14.831Z,97.48
2022-10-01T06:12:19.595Z,97.38
2022-10-01T06:13:15.802Z,97.38
2022-10-01T06:14:14.792Z,97.27
2022-10-01T06:15:15.210Z,97.17
2022-10-01T06:16:14.819Z,97.17
2022-10-01T06:17:14.754Z,97.06
2022-10-01T06:18:14.741Z,97.06
2022-10-01T06:19:15.077Z,97.06
2022-10-01T06:20:14.712Z,96.96
2022-10-01T06:21:14.704Z,96.96
2022-10-01T06:22:14.700Z,96.86
2022-10-01T06:23:14.671Z,96.75
2022-10-01T06:24:15.070Z,96.66
2022-10-01T06:25:14.639Z,96.75
2022-10-01T06:26:14.657Z,96.61
2022-10-01T06:27:14.630Z,96.61
2022-10-01T06:28:14.901Z,96.61
2022-10-01T06:29:14.975Z,96.61
2022-10-01T06:30:14.619Z,96.61
2022-10-01T06:31:14.625Z,96.61
2022-10-01T06:32:14.558Z,96.61
2022-10-01T06:33:14.545Z,96.56
2022-10-01T06:34:14.965Z,96.56
2022-10-01T06:35:14.516Z,96.56
2022-10-01T06:36:14.496Z,96.46
2022-10-01T06:37:14.506Z,96.25
2022-10-01T06:38:14.476Z,96.05
2022-10-01T06:39:14.912Z,95.84
2022-10-01T06:40:14.456Z,95.64
2022-10-01T06:41:14.435Z,95.49
2022-10-01T06:42:14.442Z,95.49
2022-10-01T06:43:14.415Z,95.49
2022-10-01T06:44:14.828Z,95.59
2022-10-01T06:45:14.383Z,95.59
2022-10-01T06:46:14.392Z,95.70
2022-10-01T06:47:14.363Z,95.59
2022-10-01T06:48:14.344Z,95.70
2022-10-01T06:49:14.702Z,95.80
2022-10-01T06:50:14.313Z,95.80
2022-10-01T06:51:14.312Z,95.90
2022-10-01T06:52:14.295Z,95.80
2022-10-01T06:53:14.286Z,95.95
2022-10-01T06:54:14.710Z,95.90
2022-10-01T06:55:16.663Z,96.00
2022-10-01T06:56:14.254Z,96.00
2022-10-01T06:57:14.231Z,96.00
2022-10-01T06:58:14.226Z,96.00
2022-10-01T06:59:14.529Z,96.11
2022-10-01T07:00:14.190Z,96.11
2022-10-01T07:01:14.234Z,96.11
2022-10-01T07:02:14.220Z,96.21
2022-10-01T07:03:14.170Z,96.21
2022-10-01T07:04:14.146Z,96.21
2022-10-01T07:05:14.439Z,96.21
2022-10-01T07:06:14.119Z,96.21
2022-10-01T07:07:14.100Z,96.21
2022-10-01T07:08:14.099Z,96.21
2022-10-01T07:09:14.400Z,96.21
2022-10-01T07:10:14.066Z,96.21
2022-10-01T07:11:14.044Z,96.21
2022-10-01T07:12:14.040Z,96.21
2022-10-01T07:13:14.040Z,96.21
2022-10-01T07:14:14.021Z,96.31
2022-10-01T07:15:14.428Z,96.31
2022-10-01T07:16:14.046Z,96.37
2022-10-01T07:17:13.974Z,96.37
2022-10-01T07:18:13.964Z,96.37
2022-10-01T07:19:14.283Z,96.37
2022-10-01T07:20:13.938Z,96.37
2022-10-01T07:21:13.914Z,96.37
2022-10-01T07:22:13.903Z,96.37
2022-10-01T07:23:13.894Z,96.37
2022-10-01T07:24:13.904Z,96.33
2022-10-01T07:25:14.064Z,96.33
2022-10-01T07:26:13.878Z,96.22
2022-10-01T07:27:13.862Z,96.22
2022-10-01T07:28:13.957Z,96.22
2022-10-01T07:29:14.191Z,96.22
2022-10-01T07:30:13.806Z,96.33
2022-10-01T07:31:13.805Z,96.12
2022-10-01T07:32:13.782Z,96.12
2022-10-01T07:33:13.771Z,96.08
2022-10-01T07:34:14.188Z,95.97
2022-10-01T07:35:13.742Z,96.08
2022-10-01T07:36:13.731Z,96.08
2022-10-01T07:37:13.713Z,95.97
2022-10-01T07:38:13.700Z,95.83
2022-10-01T07:39:14.120Z,95.83
2022-10-01T07:40:13.682Z,95.83
2022-10-01T07:41:13.667Z,95.83
2022-10-01T07:42:13.649Z,95.83
2022-10-01T07:43:13.642Z,95.83
2022-10-01T07:44:13.634Z,95.72
2022-10-01T07:45:14.061Z,95.72
2022-10-01T07:46:13.678Z,95.62
2022-10-01T07:47:13.588Z,95.62
2022-10-01T07:48:13.587Z,95.62
2022-10-01T07:49:13.598Z,95.52
2022-10-01T07:50:13.558Z,95.52
2022-10-01T07:51:13.546Z,95.62
2022-10-01T07:52:13.613Z,95.68
2022-10-01T07:53:13.514Z,95.68
2022-10-01T07:54:13.505Z,95.68
2022-10-01T07:55:14.020Z,95.68
2022-10-01T07:56:13.463Z,95.57
2022-10-01T07:57:13.447Z,95.37
2022-10-01T07:58:13.442Z,95.27
2022-10-01T07:59:13.863Z,95.17
2022-10-01T08:00:13.430Z,95.17
2022-10-01T08:01:13.434Z,95.17
2022-10-01T08:02:13.444Z,95.06
2022-10-01T08:03:13.380Z,95.06
2022-10-01T08:04:13.371Z,94.96
2022-10-01T08:05:13.802Z,94.92
2022-10-01T08:06:13.380Z,95.02
2022-10-01T08:07:13.661Z,95.02
2022-10-01T08:08:13.894Z,95.02
2022-10-01T08:09:14.093Z,95.02
2022-10-01T08:10:13.622Z,94.81
2022-10-01T08:11:14.011Z,94.92
2022-10-01T08:12:13.583Z,94.92
2022-10-01T08:13:13.272Z,94.92
2022-10-01T08:14:13.670Z,94.92
2022-10-01T08:15:13.259Z,94.92
2022-10-01T08:16:13.303Z,94.92
2022-10-01T08:17:13.341Z,94.81
2022-10-01T08:18:13.201Z,94.71
2022-10-01T08:19:13.679Z,94.71
2022-10-01T08:20:13.241Z,94.71
2022-10-01T08:21:13.970Z,94.71
2022-10-01T08:22:13.849Z,94.77
2022-10-01T08:23:13.688Z,94.87
2022-10-01T08:24:14.310Z,94.87
2022-10-01T08:25:13.143Z,94.87
2022-10-01T08:26:13.388Z,94.77
2022-10-01T08:27:13.226Z,94.56
2022-10-01T08:28:13.275Z,94.56
2022-10-01T08:29:17.050Z,94.36
2022-10-01T08:30:13.087Z,94.21
2022-10-01T08:31:13.837Z,94.11
2022-10-01T08:32:13.430Z,93.90
2022-10-01T08:33:13.249Z,93.90
2022-10-01T08:34:13.167Z,93.90
2022-10-01T08:35:13.657Z,93.80
2022-10-01T08:36:12.986Z,93.66
2022-10-01T08:37:12.954Z,93.55
2022-10-01T08:38:12.934Z,93.15
2022-10-01T08:39:13.377Z,92.94
2022-10-01T08:40:12.928Z,92.94
2022-10-01T08:41:12.905Z,92.59
2022-10-01T08:42:12.901Z,92.59
2022-10-01T08:43:12.883Z,92.49
2022-10-01T08:44:13.019Z,92.28
2022-10-01T08:45:14.074Z,92.28
2022-10-01T08:46:12.862Z,92.18
2022-10-01T08:47:12.910Z,91.97
2022-10-01T08:48:12.864Z,92.03
2022-10-01T08:49:12.988Z,92.14
2022-10-01T08:50:12.802Z,92.03
2022-10-01T08:51:12.823Z,92.03
2022-10-01T08:52:12.779Z,92.14
2022-10-01T08:53:12.744Z,91.89
2022-10-01T08:54:12.741Z,91.27
2022-10-01T08:55:13.131Z,90.77
2022-10-01T08:56:12.733Z,90.66
2022-10-01T08:57:12.722Z,90.52
2022-10-01T08:58:12.701Z,90.62
2022-10-01T08:59:13.020Z,90.21
2022-10-01T09:00:12.672Z,90.11
2022-10-01T09:01:12.719Z,89.90
2022-10-01T09:02:12.724Z,89.18
2022-10-01T09:03:12.642Z,89.15
2022-10-01T09:04:12.721Z,89.04
2022-10-01T09:05:12.672Z,89.15
2022-10-01T09:06:12.610Z,89.15
2022-10-01T09:07:12.579Z,88.94
2022-10-01T09:08:12.687Z,89.15
2022-10-01T09:09:12.601Z,88.94
2022-10-01T09:10:12.552Z,89.04
2022-10-01T09:11:12.563Z,88.94
2022-10-01T09:12:12.520Z,89.04
2022-10-01T09:13:12.508Z,88.84
2022-10-01T09:14:12.733Z,88.79
2022-10-01T09:15:12.479Z,89.11
2022-10-01T09:16:12.541Z,89.20
2022-10-01T09:17:12.459Z,89.61
2022-10-01T09:18:12.438Z,89.11
2022-10-01T09:19:12.470Z,88.90
2022-10-01T09:20:12.460Z,89.00
2022-10-01T09:21:12.421Z,88.39
2022-10-01T09:22:12.389Z,88.49
2022-10-01T09:23:12.388Z,88.24
2022-10-01T09:24:12.393Z,88.55
2022-10-01T09:25:13.538Z,88.04
2022-10-01T09:26:12.346Z,88.35
2022-10-01T09:27:12.320Z,88.55
2022-10-01T09:28:12.381Z,88.04
2022-10-01T09:29:12.305Z,88.24
2022-10-01T09:30:12.309Z,87.84
2022-10-01T09:31:12.336Z,87.94
2022-10-01T09:32:12.381Z,88.10
2022-10-01T09:33:12.258Z,87.79
2022-10-01T09:34:12.328Z,87.90
2022-10-01T09:35:12.235Z,87.49
2022-10-01T09:36:12.222Z,87.59
2022-10-01T09:37:12.189Z,87.59
2022-10-01T09:38:12.176Z,87.38
2022-10-01T09:39:12.191Z,87.38
2022-10-01T09:40:12.158Z,87.38
2022-10-01T09:41:12.136Z,87.79
2022-10-01T09:42:12.150Z,87.90
2022-10-01T09:43:12.108Z,87.79
2022-10-01T09:44:15.650Z,87.90
2022-10-01T09:45:13.107Z,87.79
2022-10-01T09:46:12.118Z,87.70
2022-10-01T09:47:12.073Z,87.70
2022-10-01T09:48:12.062Z,86.98
2022-10-01T09:49:12.097Z,87.29
2022-10-01T09:50:12.035Z,86.88
2022-10-01T09:51:12.027Z,87.49
2022-10-01T09:52:11.994Z,87.18
2022-10-01T09:53:11.988Z,87.18
2022-10-01T09:54:12.316Z,87.08
2022-10-01T09:55:11.987Z,86.94
2022-10-01T09:56:11.945Z,87.04
2022-10-01T09:57:11.936Z,86.43
2022-10-01T09:58:11.925Z,86.83
2022-10-01T09:59:12.364Z,86.53
2022-10-01T10:00:12.653Z,86.69
2022-10-01T10:01:11.884Z,86.59
2022-10-01T10:02:11.931Z,86.29
2022-10-01T10:03:11.919Z,86.49
2022-10-01T10:04:14.500Z,85.98
2022-10-01T10:05:12.155Z,85.98
2022-10-01T10:06:11.823Z,85.88
2022-10-01T10:07:11.811Z,85.88
2022-10-01T10:08:11.790Z,86.15
2022-10-01T10:09:12.004Z,86.04
2022-10-01T10:10:11.772Z,85.63
2022-10-01T10:11:11.771Z,85.63
2022-10-01T10:12:11.742Z,85.94
2022-10-01T10:13:11.732Z,86.15
2022-10-01T10:14:12.910Z,85.94
2022-10-01T10:15:13.181Z,85.63
2022-10-01T10:16:11.743Z,85.37
2022-10-01T10:17:11.692Z,85.57
2022-10-01T10:18:11.692Z,85.74
2022-10-01T10:19:11.710Z,85.74
2022-10-01T10:20:11.643Z,85.94
2022-10-01T10:21:11.614Z,86.04
2022-10-01T10:22:11.600Z,86.04
2022-10-01T10:23:11.590Z,86.29
2022-10-01T10:24:11.581Z,86.69
2022-10-01T10:25:11.594Z,86.49
2022-10-01T10:26:11.540Z,86.69
2022-10-01T10:27:11.600Z,85.98
2022-10-01T10:28:11.560Z,86.49
2022-10-01T10:29:12.175Z,85.98
2022-10-01T10:30:11.507Z,86.29
2022-10-01T10:31:11.519Z,86.69
2022-10-01T10:32:11.469Z,86.29
2022-10-01T10:33:11.467Z,86.90
2022-10-01T10:34:11.468Z,86.39
2022-10-01T10:35:11.436Z,86.90
2022-10-01T10:36:11.422Z,86.80
2022-10-01T10:37:11.405Z,86.59
2022-10-01T10:38:11.385Z,87.00
2022-10-01T10:39:11.826Z,87.10
2022-10-01T10:40:11.387Z,87.41
2022-10-01T10:41:11.358Z,87.10
2022-10-01T10:42:12.312Z,87.20
2022-10-01T10:43:11.348Z,87.00
2022-10-01T10:44:19.511Z,86.49
2022-10-01T10:45:11.745Z,86.29
2022-10-01T10:46:11.318Z,86.29
2022-10-01T10:47:11.272Z,86.69
2022-10-01T10:48:11.245Z,86.69
2022-10-01T10:49:11.649Z,86.80
2022-10-01T10:50:11.224Z,87.35
2022-10-01T10:51:11.232Z,87.76
2022-10-01T10:52:11.197Z,87.85
2022-10-01T10:53:11.203Z,88.37
2022-10-01T10:54:11.189Z,88.47
2022-10-01T10:55:11.625Z,88.57
2022-10-01T10:56:11.158Z,88.67
2022-10-01T10:57:11.154Z,88.57
2022-10-01T10:58:11.120Z,88.26
2022-10-01T10:59:14.827Z,88.88
2022-10-01T11:00:11.107Z,88.26
2022-10-01T11:01:12.143Z,88.37
2022-10-01T11:02:11.156Z,88.17
2022-10-01T11:03:11.054Z,88.22
2022-10-01T11:04:11.352Z,88.12
2022-10-01T11:05:11.035Z,88.12
2022-10-01T11:06:11.032Z,88.08
2022-10-01T11:07:11.061Z,87.37
2022-10-01T11:08:15.440Z,87.26
2022-10-01T11:09:12.022Z,87.16
2022-10-01T11:10:13.152Z,87.43
2022-10-01T11:11:10.952Z,87.16
2022-10-01T11:12:10.931Z,87.02
2022-10-01T11:13:10.918Z,86.92
2022-10-01T11:14:10.964Z,86.71
2022-10-01T11:15:10.909Z,86.47
2022-10-01T11:16:10.920Z,85.96
2022-10-01T11:17:10.867Z,85.96
2022-10-01T11:18:10.880Z,86.22
2022-10-01T11:19:10.901Z,85.86
2022-10-01T11:20:10.830Z,85.41
2022-10-01T11:21:10.829Z,85.11
2022-10-01T11:22:10.811Z,85.41
2022-10-01T11:23:10.789Z,85.51
2022-10-01T11:24:11.110Z,85.21
2022-10-01T11:25:10.769Z,85.31
2022-10-01T11:26:10.782Z,84.80
2022-10-01T11:27:10.748Z,85.11
2022-10-01T11:28:10.778Z,84.90
2022-10-01T11:29:10.899Z,84.39
2022-10-01T11:30:10.728Z,84.25
2022-10-01T11:31:10.731Z,84.25
2022-10-01T11:32:10.681Z,84.25
2022-10-01T11:33:10.658Z,84.66
2022-10-01T11:34:10.655Z,84.76
2022-10-01T11:35:10.667Z,84.80
2022-10-01T11:36:10.627Z,84.70
2022-10-01T11:37:10.617Z,84.70
2022-10-01T11:38:10.598Z,85.00
2022-10-01T11:39:11.018Z,85.00
2022-10-01T11:40:10.678Z,85.21
2022-10-01T11:41:10.560Z,85.31
2022-10-01T11:42:10.566Z,85.11
2022-10-01T11:43:11.360Z,84.90
2022-10-01T11:44:10.516Z,84.64
2022-10-01T11:45:10.555Z,85.41
2022-10-01T11:46:10.642Z,85.14
2022-10-01T11:47:10.532Z,85.21
2022-10-01T11:48:10.475Z,85.25
2022-10-01T11:49:10.830Z,85.41
2022-10-01T11:50:10.719Z,85.41
2022-10-01T11:51:10.428Z,85.35
2022-10-01T11:52:14.065Z,85.55
2022-10-01T11:53:10.405Z,85.25
2022-10-01T11:54:10.435Z,85.35
2022-10-01T11:55:10.833Z,85.45
2022-10-01T11:56:10.364Z,85.35
2022-10-01T11:57:10.356Z,85.21
2022-10-01T11:58:10.339Z,85.51
2022-10-01T11:59:10.400Z,85.14
2022-10-01T12:00:10.373Z,85.35
2022-10-01T12:01:10.301Z,85.25
2022-10-01T12:02:10.314Z,85.05
2022-10-01T12:03:10.282Z,85.66
2022-10-01T12:04:10.304Z,85.66
2022-10-01T12:05:10.372Z,85.45
2022-10-01T12:06:10.245Z,85.75
2022-10-01T12:07:10.243Z,85.75
2022-10-01T12:08:10.243Z,85.45
2022-10-01T12:09:10.520Z,85.61
2022-10-01T12:10:10.263Z,85.92
2022-10-01T12:11:10.185Z,85.82
2022-10-01T12:12:10.158Z,85.41
2022-10-01T12:13:10.152Z,85.61
2022-10-01T12:14:10.145Z,85.51
2022-10-01T12:15:10.522Z,85.31
2022-10-01T12:16:10.184Z,85.21
2022-10-01T12:17:10.107Z,85.11
2022-10-01T12:18:10.202Z,85.31
2022-10-01T12:19:10.535Z,85.11
2022-10-01T12:20:10.168Z,84.97
2022-10-01T12:21:10.052Z,85.06
2022-10-01T12:22:10.021Z,84.86
2022-10-01T12:23:10.022Z,84.76
2022-10-01T12:24:10.003Z,84.62
2022-10-01T12:25:10.352Z,84.62
2022-10-01T12:26:09.983Z,84.52
2022-10-01T12:27:09.960Z,84.52
2022-10-01T12:28:10.085Z,84.11
2022-10-01T12:29:10.384Z,84.38
2022-10-01T12:30:10.055Z,84.07
2022-10-01T12:31:09.995Z,84.17
2022-10-01T12:32:09.889Z,83.87
2022-10-01T12:33:09.879Z,83.87
2022-10-01T12:34:09.871Z,83.87
2022-10-01T12:35:09.899Z,83.76
2022-10-01T12:36:09.867Z,83.73
2022-10-01T12:37:09.832Z,83.73
2022-10-01T12:38:09.834Z,83.62
2022-10-01T12:39:10.248Z,83.83
2022-10-01T12:40:09.819Z,83.53
2022-10-01T12:41:09.796Z,83.32
2022-10-01T12:42:09.758Z,83.59
2022-10-01T12:43:09.756Z,83.38
2022-10-01T12:44:09.769Z,82.64
2022-10-01T12:45:09.731Z,82.94
2022-10-01T12:46:09.751Z,82.84
2022-10-01T12:47:09.707Z,82.67
2022-10-01T12:48:09.681Z,83.08
2022-10-01T12:49:10.064Z,83.14
2022-10-01T12:50:09.758Z,82.84
2022-10-01T12:51:09.659Z,82.64
2022-10-01T12:52:09.625Z,82.73